JIA25 KMOB-KDFW
Flight info
| Callsign | JIA25 |
|---|---|
| Flight time | 1h 25m |
| Altitude | 34000 |
| Route | AEX PNUTS WHINY4 |
| Aircraft | CRJ9/M-SDFGIRWY/S |
Departure
| Time | 2026-05-06 17:44 |
|---|---|
| Airport | Mobile Regional Airport (KMOB) |
Arrival
| Time | 2026-05-06 19:09 |
|---|---|
| Airport | Dallas Fort Worth International Airport (KDFW) |
| Time | Latitude | Longitude | Altitude | Speed | Heading |
|---|---|---|---|---|---|
| 2026-05-06 17:23 | 30.68292 | -88.24485 | 223 ft | 0 kts | 270° |
| 2026-05-06 17:27 | 30.68292 | -88.24486 | 223 ft | 0 kts | 270° |
| 2026-05-06 17:35 | 30.68293 | -88.24460 | 223 ft | 4 kts | 261° |
| 2026-05-06 17:36 | 30.68327 | -88.24435 | 223 ft | 1 kts | 180° |
| 2026-05-06 17:36 | 30.68328 | -88.24435 | 223 ft | 1 kts | 180° |
| 2026-05-06 17:38 | 30.68327 | -88.24435 | 223 ft | 0 kts | 180° |
| 2026-05-06 17:38 | 30.68325 | -88.24435 | 223 ft | 0 kts | 174° |
| 2026-05-06 17:39 | 30.68315 | -88.24429 | 223 ft | 5 kts | 136° |
| 2026-05-06 17:39 | 30.68315 | -88.24400 | 223 ft | 3 kts | 59° |
| 2026-05-06 17:39 | 30.68340 | -88.24366 | 224 ft | 10 kts | 49° |
| 2026-05-06 17:39 | 30.68409 | -88.24286 | 223 ft | 16 kts | 34° |
| 2026-05-06 17:40 | 30.68531 | -88.24231 | 221 ft | 21 kts | 20° |
| 2026-05-06 17:40 | 30.68643 | -88.24286 | 221 ft | 19 kts | 323° |
| 2026-05-06 17:40 | 30.68758 | -88.24384 | 220 ft | 23 kts | 325° |
| 2026-05-06 17:40 | 30.68896 | -88.24498 | 221 ft | 25 kts | 323° |
| 2026-05-06 17:41 | 30.69047 | -88.24624 | 222 ft | 28 kts | 324° |
| 2026-05-06 17:41 | 30.69216 | -88.24761 | 223 ft | 30 kts | 326° |
| 2026-05-06 17:41 | 30.69404 | -88.24901 | 219 ft | 33 kts | 326° |
| 2026-05-06 17:41 | 30.69597 | -88.25055 | 220 ft | 35 kts | 326° |
| 2026-05-06 17:42 | 30.69803 | -88.25218 | 216 ft | 36 kts | 324° |
| 2026-05-06 17:42 | 30.70005 | -88.25388 | 220 ft | 35 kts | 324° |
| 2026-05-06 17:42 | 30.70183 | -88.25464 | 221 ft | 20 kts | 45° |
| 2026-05-06 17:42 | 30.70188 | -88.25356 | 219 ft | 10 kts | 142° |
| 2026-05-06 17:43 | 30.70087 | -88.25276 | 220 ft | 41 kts | 143° |
| 2026-05-06 17:43 | 30.69637 | -88.24901 | 218 ft | 116 kts | 144° |
| 2026-05-06 17:43 | 30.68818 | -88.24213 | 241 ft | 171 kts | 146° |
| 2026-05-06 17:43 | 30.67775 | -88.23303 | 636 ft | 201 kts | 144° |
| 2026-05-06 17:44 | 30.66654 | -88.22332 | 1694 ft | 200 kts | 154° |
| 2026-05-06 17:44 | 30.65340 | -88.21743 | 2498 ft | 207 kts | 180° |
| 2026-05-06 17:44 | 30.64383 | -88.21709 | 3276 ft | 205 kts | 181° |
| 2026-05-06 17:44 | 30.62886 | -88.21574 | 4093 ft | 224 kts | 177° |
| 2026-05-06 17:45 | 30.60735 | -88.21427 | 5150 ft | 242 kts | 193° |
| 2026-05-06 17:45 | 30.59306 | -88.22400 | 6055 ft | 242 kts | 233° |
| 2026-05-06 17:45 | 30.58756 | -88.24246 | 6981 ft | 252 kts | 270° |
| 2026-05-06 17:45 | 30.59331 | -88.26191 | 7867 ft | 267 kts | 298° |
| 2026-05-06 17:46 | 30.59974 | -88.27474 | 8270 ft | 277 kts | 292° |
| 2026-05-06 17:46 | 30.60752 | -88.29576 | 8877 ft | 290 kts | 285° |
| 2026-05-06 17:46 | 30.61358 | -88.31817 | 9474 ft | 297 kts | 281° |
| 2026-05-06 17:46 | 30.61829 | -88.34165 | 10282 ft | 299 kts | 278° |
| 2026-05-06 17:47 | 30.62229 | -88.36542 | 11069 ft | 301 kts | 277° |
| 2026-05-06 17:47 | 30.62607 | -88.38950 | 11842 ft | 304 kts | 277° |
| 2026-05-06 17:47 | 30.63002 | -88.41369 | 12593 ft | 306 kts | 277° |
| 2026-05-06 17:47 | 30.63412 | -88.43816 | 13339 ft | 309 kts | 278° |
| 2026-05-06 17:48 | 30.63825 | -88.46274 | 14038 ft | 311 kts | 278° |
| 2026-05-06 17:48 | 30.64247 | -88.48759 | 14514 ft | 321 kts | 278° |
| 2026-05-06 17:48 | 30.64691 | -88.51381 | 14715 ft | 339 kts | 278° |
| 2026-05-06 17:48 | 30.65156 | -88.54126 | 14978 ft | 354 kts | 278° |
| 2026-05-06 17:49 | 30.65632 | -88.56938 | 15625 ft | 355 kts | 278° |
| 2026-05-06 17:49 | 30.66109 | -88.59757 | 16279 ft | 357 kts | 278° |
| 2026-05-06 17:49 | 30.66586 | -88.62587 | 16934 ft | 358 kts | 278° |
| 2026-05-06 17:49 | 30.67059 | -88.65397 | 17558 ft | 360 kts | 279° |
| 2026-05-06 17:50 | 30.67539 | -88.68259 | 18198 ft | 362 kts | 279° |
| 2026-05-06 17:50 | 30.68025 | -88.71137 | 18714 ft | 363 kts | 278° |
| 2026-05-06 17:50 | 30.68510 | -88.74023 | 19242 ft | 365 kts | 278° |
| 2026-05-06 17:50 | 30.68999 | -88.76937 | 19757 ft | 367 kts | 278° |
| 2026-05-06 17:51 | 30.69487 | -88.79852 | 20260 ft | 368 kts | 278° |
| 2026-05-06 17:51 | 30.69975 | -88.82782 | 20742 ft | 370 kts | 278° |
| 2026-05-06 17:51 | 30.70466 | -88.85725 | 21219 ft | 372 kts | 278° |
| 2026-05-06 17:51 | 30.70959 | -88.88689 | 21673 ft | 374 kts | 278° |
| 2026-05-06 17:52 | 30.71454 | -88.91664 | 22133 ft | 376 kts | 278° |
| 2026-05-06 17:52 | 30.71944 | -88.94613 | 22579 ft | 378 kts | 278° |
| 2026-05-06 17:52 | 30.72441 | -88.97616 | 23021 ft | 379 kts | 278° |
| 2026-05-06 17:52 | 30.72944 | -89.00644 | 23439 ft | 382 kts | 278° |
| 2026-05-06 17:53 | 30.73446 | -89.03686 | 23840 ft | 383 kts | 278° |
| 2026-05-06 17:53 | 30.73948 | -89.06729 | 24219 ft | 384 kts | 278° |
| 2026-05-06 17:53 | 30.74452 | -89.09782 | 24582 ft | 385 kts | 278° |
| 2026-05-06 17:53 | 30.74954 | -89.12839 | 24937 ft | 386 kts | 278° |
| 2026-05-06 17:54 | 30.75459 | -89.15904 | 25289 ft | 387 kts | 278° |
| 2026-05-06 17:54 | 30.75964 | -89.18983 | 25627 ft | 387 kts | 278° |
| 2026-05-06 17:54 | 30.76470 | -89.22069 | 25959 ft | 388 kts | 278° |
| 2026-05-06 17:54 | 30.76974 | -89.25159 | 26283 ft | 389 kts | 278° |
| 2026-05-06 17:55 | 30.77480 | -89.28253 | 26598 ft | 390 kts | 278° |
| 2026-05-06 17:55 | 30.77987 | -89.31363 | 26915 ft | 391 kts | 278° |
| 2026-05-06 17:55 | 30.78493 | -89.34472 | 27208 ft | 392 kts | 278° |
| 2026-05-06 17:55 | 30.78994 | -89.37563 | 27432 ft | 394 kts | 278° |
| 2026-05-06 17:56 | 30.79506 | -89.40719 | 27503 ft | 401 kts | 278° |
| 2026-05-06 17:56 | 30.80026 | -89.43932 | 27647 ft | 405 kts | 278° |
| 2026-05-06 17:56 | 30.80545 | -89.47141 | 28048 ft | 403 kts | 278° |
| 2026-05-06 17:56 | 30.81053 | -89.50284 | 28454 ft | 401 kts | 278° |
| 2026-05-06 17:57 | 30.81566 | -89.53467 | 28849 ft | 399 kts | 278° |
| 2026-05-06 17:57 | 30.82075 | -89.56634 | 29241 ft | 397 kts | 278° |
| 2026-05-06 17:57 | 30.82582 | -89.59783 | 29629 ft | 395 kts | 278° |
| 2026-05-06 17:57 | 30.83086 | -89.62920 | 29999 ft | 393 kts | 278° |
| 2026-05-06 17:58 | 30.83583 | -89.66040 | 30297 ft | 392 kts | 278° |
| 2026-05-06 17:58 | 30.84075 | -89.69115 | 30554 ft | 391 kts | 278° |
| 2026-05-06 17:58 | 30.84575 | -89.72234 | 30802 ft | 391 kts | 278° |
| 2026-05-06 17:58 | 30.85072 | -89.75350 | 31088 ft | 390 kts | 278° |
| 2026-05-06 17:59 | 30.85565 | -89.78447 | 31345 ft | 389 kts | 278° |
| 2026-05-06 17:59 | 30.86058 | -89.81548 | 31579 ft | 389 kts | 278° |
| 2026-05-06 17:59 | 30.86548 | -89.84640 | 31816 ft | 388 kts | 278° |
| 2026-05-06 17:59 | 30.87038 | -89.87733 | 32055 ft | 388 kts | 278° |
| 2026-05-06 18:00 | 30.87526 | -89.90818 | 32304 ft | 387 kts | 278° |
| 2026-05-06 18:00 | 30.88011 | -89.93891 | 32519 ft | 387 kts | 278° |
| 2026-05-06 18:00 | 30.88496 | -89.96977 | 32760 ft | 386 kts | 278° |
| 2026-05-06 18:00 | 30.88969 | -89.99984 | 32975 ft | 386 kts | 278° |
| 2026-05-06 18:01 | 30.89455 | -90.03080 | 33196 ft | 385 kts | 278° |
| 2026-05-06 18:01 | 30.89937 | -90.06152 | 33432 ft | 385 kts | 278° |
| 2026-05-06 18:01 | 30.90418 | -90.09219 | 33624 ft | 385 kts | 278° |
| 2026-05-06 18:01 | 30.90898 | -90.12287 | 33798 ft | 385 kts | 278° |
| 2026-05-06 18:02 | 30.91376 | -90.15352 | 34010 ft | 384 kts | 278° |
| 2026-05-06 18:02 | 30.91857 | -90.18427 | 34054 ft | 387 kts | 278° |
| 2026-05-06 18:02 | 30.92823 | -90.24643 | 34095 ft | 393 kts | 278° |
| 2026-05-06 18:03 | 30.93796 | -90.30930 | 34110 ft | 400 kts | 278° |
| 2026-05-06 18:03 | 30.94790 | -90.37358 | 34158 ft | 407 kts | 278° |
| 2026-05-06 18:04 | 30.95785 | -90.43816 | 34092 ft | 401 kts | 278° |
| 2026-05-06 18:04 | 30.96748 | -90.50093 | 34013 ft | 386 kts | 278° |
| 2026-05-06 18:05 | 30.97682 | -90.56200 | 34005 ft | 378 kts | 277° |
| 2026-05-06 18:05 | 30.98594 | -90.62179 | 33994 ft | 371 kts | 277° |
| 2026-05-06 18:06 | 30.99486 | -90.68040 | 33992 ft | 364 kts | 277° |
| 2026-05-06 18:06 | 31.00370 | -90.73876 | 33996 ft | 367 kts | 277° |
| 2026-05-06 18:07 | 31.01253 | -90.79733 | 33993 ft | 371 kts | 277° |
| 2026-05-06 18:07 | 31.02149 | -90.85693 | 33988 ft | 375 kts | 277° |
| 2026-05-06 18:08 | 31.03054 | -90.91716 | 33990 ft | 379 kts | 277° |
| 2026-05-06 18:08 | 31.03968 | -90.97832 | 33997 ft | 385 kts | 277° |
| 2026-05-06 18:09 | 31.04890 | -91.04029 | 34003 ft | 391 kts | 277° |
| 2026-05-06 18:09 | 31.05824 | -91.10317 | 33993 ft | 396 kts | 277° |
| 2026-05-06 18:10 | 31.06759 | -91.16635 | 33978 ft | 400 kts | 277° |
| 2026-05-06 18:10 | 31.07705 | -91.23062 | 33976 ft | 403 kts | 277° |
| 2026-05-06 18:11 | 31.08653 | -91.29509 | 33978 ft | 403 kts | 277° |
| 2026-05-06 18:11 | 31.09600 | -91.35974 | 33965 ft | 404 kts | 277° |
| 2026-05-06 18:12 | 31.10544 | -91.42448 | 33976 ft | 405 kts | 276° |
| 2026-05-06 18:12 | 31.11489 | -91.48935 | 33969 ft | 405 kts | 276° |
| 2026-05-06 18:13 | 31.12429 | -91.55427 | 33958 ft | 405 kts | 276° |
| 2026-05-06 18:13 | 31.13358 | -91.61881 | 33958 ft | 405 kts | 276° |
| 2026-05-06 18:14 | 31.14293 | -91.68373 | 33974 ft | 406 kts | 276° |
| 2026-05-06 18:14 | 31.15222 | -91.74877 | 33986 ft | 406 kts | 276° |
| 2026-05-06 18:15 | 31.16153 | -91.81385 | 33963 ft | 405 kts | 276° |
| 2026-05-06 18:15 | 31.17073 | -91.87848 | 33964 ft | 401 kts | 276° |
| 2026-05-06 18:16 | 31.17978 | -91.94245 | 33968 ft | 398 kts | 276° |
| 2026-05-06 18:16 | 31.18875 | -92.00592 | 33968 ft | 395 kts | 276° |
| 2026-05-06 18:17 | 31.19756 | -92.06863 | 33978 ft | 392 kts | 276° |
| 2026-05-06 18:17 | 31.20636 | -92.13144 | 33970 ft | 391 kts | 276° |
| 2026-05-06 18:18 | 31.21512 | -92.19401 | 33971 ft | 389 kts | 276° |
| 2026-05-06 18:18 | 31.22375 | -92.25623 | 33950 ft | 388 kts | 276° |
| 2026-05-06 18:19 | 31.23236 | -92.31838 | 33951 ft | 386 kts | 275° |
| 2026-05-06 18:19 | 31.24094 | -92.38033 | 33954 ft | 385 kts | 275° |
| 2026-05-06 18:20 | 31.24940 | -92.44178 | 33968 ft | 384 kts | 275° |
| 2026-05-06 18:20 | 31.26008 | -92.50318 | 33970 ft | 387 kts | 281° |
| 2026-05-06 18:21 | 31.27726 | -92.56253 | 33963 ft | 390 kts | 285° |
| 2026-05-06 18:21 | 31.29802 | -92.62121 | 33964 ft | 390 kts | 286° |
| 2026-05-06 18:22 | 31.31868 | -92.67988 | 33967 ft | 389 kts | 285° |
| 2026-05-06 18:22 | 31.33861 | -92.73821 | 33953 ft | 388 kts | 285° |
| 2026-05-06 18:23 | 31.35853 | -92.79679 | 33953 ft | 387 kts | 285° |
| 2026-05-06 18:23 | 31.37839 | -92.85534 | 33943 ft | 386 kts | 285° |
| 2026-05-06 18:24 | 31.39815 | -92.91372 | 33939 ft | 385 kts | 285° |
| 2026-05-06 18:24 | 31.41789 | -92.97212 | 33939 ft | 385 kts | 285° |
| 2026-05-06 18:25 | 31.43743 | -93.03002 | 33947 ft | 384 kts | 285° |
| 2026-05-06 18:25 | 31.45708 | -93.08838 | 33977 ft | 385 kts | 284° |
| 2026-05-06 18:26 | 31.47671 | -93.14678 | 33958 ft | 386 kts | 284° |
| 2026-05-06 18:26 | 31.49635 | -93.20529 | 33944 ft | 385 kts | 284° |
| 2026-05-06 18:27 | 31.51592 | -93.26372 | 33941 ft | 385 kts | 284° |
| 2026-05-06 18:27 | 31.53544 | -93.32211 | 33945 ft | 385 kts | 284° |
| 2026-05-06 18:28 | 31.55482 | -93.38016 | 33963 ft | 385 kts | 284° |
| 2026-05-06 18:28 | 31.57434 | -93.43878 | 33939 ft | 385 kts | 284° |
| 2026-05-06 18:29 | 31.59383 | -93.49732 | 33927 ft | 385 kts | 284° |
| 2026-05-06 18:29 | 31.61231 | -93.55616 | 33930 ft | 382 kts | 281° |
| 2026-05-06 18:30 | 31.62712 | -93.61581 | 33929 ft | 380 kts | 279° |
| 2026-05-06 18:30 | 31.64149 | -93.67550 | 33931 ft | 380 kts | 279° |
| 2026-05-06 18:31 | 31.65603 | -93.73477 | 33936 ft | 381 kts | 280° |
| 2026-05-06 18:31 | 31.67100 | -93.79443 | 33930 ft | 380 kts | 280° |
| 2026-05-06 18:32 | 31.68591 | -93.85397 | 33928 ft | 380 kts | 279° |
| 2026-05-06 18:32 | 31.70082 | -93.91352 | 33954 ft | 380 kts | 279° |
| 2026-05-06 18:33 | 31.71322 | -93.96321 | 33958 ft | 381 kts | 279° |
| 2026-05-06 18:33 | 31.72813 | -94.02310 | 33969 ft | 382 kts | 279° |
| 2026-05-06 18:34 | 31.74305 | -94.08309 | 33953 ft | 383 kts | 279° |
| 2026-05-06 18:34 | 31.75787 | -94.14290 | 33945 ft | 383 kts | 279° |
| 2026-05-06 18:35 | 31.77275 | -94.20304 | 33974 ft | 384 kts | 279° |
| 2026-05-06 18:35 | 31.78766 | -94.26341 | 33951 ft | 384 kts | 279° |
| 2026-05-06 18:36 | 31.80254 | -94.32381 | 33950 ft | 384 kts | 279° |
| 2026-05-06 18:36 | 31.81739 | -94.38422 | 33956 ft | 384 kts | 279° |
| 2026-05-06 18:37 | 31.83221 | -94.44474 | 33938 ft | 391 kts | 279° |
| 2026-05-06 18:37 | 31.84738 | -94.50681 | 33936 ft | 398 kts | 279° |
| 2026-05-06 18:38 | 31.86278 | -94.56996 | 33954 ft | 404 kts | 279° |
| 2026-05-06 18:38 | 31.87832 | -94.63382 | 33948 ft | 408 kts | 279° |
| 2026-05-06 18:39 | 31.89400 | -94.69841 | 33983 ft | 412 kts | 279° |
| 2026-05-06 18:40 | 31.91750 | -94.79530 | 33954 ft | 411 kts | 279° |
| 2026-05-06 18:40 | 31.93312 | -94.86006 | 33969 ft | 411 kts | 279° |
| 2026-05-06 18:41 | 31.94873 | -94.92481 | 33940 ft | 410 kts | 279° |
| 2026-05-06 18:41 | 31.96424 | -94.98939 | 33942 ft | 409 kts | 279° |
| 2026-05-06 18:42 | 31.97968 | -95.05368 | 33923 ft | 406 kts | 279° |
| 2026-05-06 18:42 | 31.99495 | -95.11745 | 33920 ft | 403 kts | 279° |
| 2026-05-06 18:42 | 32.00253 | -95.14896 | 33672 ft | 394 kts | 279° |
| 2026-05-06 18:43 | 32.00983 | -95.17998 | 32815 ft | 393 kts | 278° |
| 2026-05-06 18:43 | 32.01697 | -95.21115 | 31990 ft | 395 kts | 278° |
| 2026-05-06 18:43 | 32.02412 | -95.24260 | 31203 ft | 398 kts | 278° |
| 2026-05-06 18:43 | 32.03137 | -95.27409 | 30506 ft | 397 kts | 279° |
| 2026-05-06 18:44 | 32.03853 | -95.30534 | 29881 ft | 393 kts | 279° |
| 2026-05-06 18:44 | 32.04549 | -95.33589 | 29221 ft | 391 kts | 279° |
| 2026-05-06 18:44 | 32.05251 | -95.36687 | 28567 ft | 390 kts | 278° |
| 2026-05-06 18:44 | 32.05947 | -95.39750 | 27983 ft | 387 kts | 278° |
| 2026-05-06 18:45 | 32.06637 | -95.42808 | 27421 ft | 385 kts | 278° |
| 2026-05-06 18:45 | 32.07326 | -95.45848 | 26865 ft | 383 kts | 278° |
| 2026-05-06 18:45 | 32.08010 | -95.48875 | 26333 ft | 378 kts | 278° |
| 2026-05-06 18:45 | 32.08683 | -95.51843 | 25802 ft | 370 kts | 278° |
| 2026-05-06 18:46 | 32.09350 | -95.54762 | 25271 ft | 367 kts | 278° |
| 2026-05-06 18:46 | 32.10017 | -95.57666 | 24775 ft | 366 kts | 278° |
| 2026-05-06 18:46 | 32.10705 | -95.60559 | 24271 ft | 365 kts | 279° |
| 2026-05-06 18:46 | 32.11426 | -95.63384 | 23816 ft | 364 kts | 279° |
| 2026-05-06 18:47 | 32.12158 | -95.66253 | 23322 ft | 366 kts | 279° |
| 2026-05-06 18:47 | 32.12896 | -95.69129 | 22779 ft | 367 kts | 279° |
| 2026-05-06 18:47 | 32.13631 | -95.72007 | 22240 ft | 366 kts | 279° |
| 2026-05-06 18:47 | 32.14367 | -95.74889 | 21724 ft | 366 kts | 279° |
| 2026-05-06 18:48 | 32.15099 | -95.77765 | 21204 ft | 366 kts | 280° |
| 2026-05-06 18:48 | 32.15806 | -95.80653 | 20699 ft | 365 kts | 279° |
| 2026-05-06 18:48 | 32.16481 | -95.83538 | 20183 ft | 365 kts | 279° |
| 2026-05-06 18:48 | 32.17151 | -95.86430 | 19700 ft | 364 kts | 279° |
| 2026-05-06 18:49 | 32.17818 | -95.89290 | 19205 ft | 360 kts | 279° |
| 2026-05-06 18:49 | 32.18476 | -95.92127 | 18730 ft | 356 kts | 279° |
| 2026-05-06 18:49 | 32.19129 | -95.94923 | 18251 ft | 351 kts | 279° |
| 2026-05-06 18:49 | 32.19770 | -95.97692 | 17706 ft | 348 kts | 279° |
| 2026-05-06 18:50 | 32.20405 | -96.00429 | 17168 ft | 345 kts | 279° |
| 2026-05-06 18:50 | 32.21035 | -96.03154 | 16642 ft | 342 kts | 279° |
| 2026-05-06 18:50 | 32.21657 | -96.05854 | 16123 ft | 340 kts | 279° |
| 2026-05-06 18:50 | 32.22272 | -96.08529 | 15612 ft | 334 kts | 279° |
| 2026-05-06 18:51 | 32.22874 | -96.11151 | 15175 ft | 327 kts | 279° |
| 2026-05-06 18:51 | 32.23466 | -96.13719 | 14782 ft | 320 kts | 279° |
| 2026-05-06 18:51 | 32.24042 | -96.16233 | 14399 ft | 314 kts | 279° |
| 2026-05-06 18:51 | 32.24599 | -96.18664 | 14031 ft | 308 kts | 279° |
| 2026-05-06 18:52 | 32.25155 | -96.21087 | 13697 ft | 302 kts | 279° |
| 2026-05-06 18:52 | 32.25699 | -96.23462 | 13352 ft | 297 kts | 279° |
| 2026-05-06 18:52 | 32.26231 | -96.25796 | 13012 ft | 292 kts | 279° |
| 2026-05-06 18:52 | 32.26751 | -96.28073 | 12689 ft | 288 kts | 279° |
| 2026-05-06 18:53 | 32.27272 | -96.30364 | 12353 ft | 284 kts | 279° |
| 2026-05-06 18:53 | 32.27958 | -96.32562 | 12015 ft | 289 kts | 296° |
| 2026-05-06 18:53 | 32.29143 | -96.34488 | 11726 ft | 290 kts | 302° |
| 2026-05-06 18:53 | 32.30474 | -96.36284 | 11431 ft | 289 kts | 306° |
| 2026-05-06 18:54 | 32.31844 | -96.37982 | 11159 ft | 288 kts | 309° |
| 2026-05-06 18:54 | 32.33339 | -96.39571 | 10874 ft | 291 kts | 314° |
| 2026-05-06 18:54 | 32.34913 | -96.41086 | 10592 ft | 292 kts | 315° |
| 2026-05-06 18:54 | 32.36501 | -96.42603 | 10320 ft | 297 kts | 316° |
| 2026-05-06 18:55 | 32.38119 | -96.44178 | 10059 ft | 305 kts | 313° |
| 2026-05-06 18:55 | 32.39435 | -96.46140 | 9798 ft | 306 kts | 297° |
| 2026-05-06 18:55 | 32.40473 | -96.48323 | 9525 ft | 301 kts | 294° |
| 2026-05-06 18:55 | 32.41428 | -96.50490 | 9247 ft | 293 kts | 293° |
| 2026-05-06 18:56 | 32.42366 | -96.52601 | 8974 ft | 286 kts | 294° |
| 2026-05-06 18:56 | 32.43286 | -96.54671 | 8689 ft | 281 kts | 294° |
| 2026-05-06 18:56 | 32.44200 | -96.56686 | 8472 ft | 275 kts | 294° |
| 2026-05-06 18:56 | 32.45110 | -96.58649 | 8352 ft | 270 kts | 295° |
| 2026-05-06 18:57 | 32.46018 | -96.60596 | 8231 ft | 271 kts | 295° |
| 2026-05-06 18:57 | 32.46928 | -96.62543 | 8119 ft | 277 kts | 295° |
| 2026-05-06 18:57 | 32.47876 | -96.64570 | 8009 ft | 283 kts | 295° |
| 2026-05-06 18:57 | 32.48825 | -96.66618 | 7897 ft | 282 kts | 293° |
| 2026-05-06 18:58 | 32.49379 | -96.68805 | 7689 ft | 277 kts | 276° |
| 2026-05-06 18:58 | 32.49584 | -96.71089 | 7349 ft | 281 kts | 271° |
| 2026-05-06 18:58 | 32.49688 | -96.73413 | 7017 ft | 285 kts | 270° |
| 2026-05-06 18:58 | 32.49776 | -96.75772 | 6675 ft | 288 kts | 270° |
| 2026-05-06 18:59 | 32.49858 | -96.78146 | 6331 ft | 289 kts | 270° |
| 2026-05-06 18:59 | 32.49982 | -96.80507 | 5960 ft | 282 kts | 275° |
| 2026-05-06 18:59 | 32.50716 | -96.82616 | 5664 ft | 281 kts | 307° |
| 2026-05-06 18:59 | 32.52282 | -96.83906 | 5406 ft | 280 kts | 339° |
| 2026-05-06 19:00 | 32.54145 | -96.84467 | 5147 ft | 271 kts | 336° |
| 2026-05-06 19:00 | 32.55715 | -96.85616 | 4902 ft | 262 kts | 317° |
| 2026-05-06 19:00 | 32.57048 | -96.87056 | 4677 ft | 257 kts | 313° |
| 2026-05-06 19:00 | 32.57898 | -96.88017 | 4624 ft | 253 kts | 314° |
| 2026-05-06 19:01 | 32.59604 | -96.89856 | 4403 ft | 242 kts | 317° |
| 2026-05-06 19:01 | 32.60862 | -96.91144 | 4229 ft | 236 kts | 317° |
| 2026-05-06 19:01 | 32.62102 | -96.92381 | 4119 ft | 228 kts | 318° |
| 2026-05-06 19:01 | 32.63274 | -96.93564 | 4077 ft | 213 kts | 317° |
| 2026-05-06 19:02 | 32.64360 | -96.94661 | 4056 ft | 197 kts | 317° |
| 2026-05-06 19:02 | 32.65379 | -96.95693 | 3911 ft | 188 kts | 318° |
| 2026-05-06 19:02 | 32.66348 | -96.96688 | 3820 ft | 180 kts | 318° |
| 2026-05-06 19:02 | 32.67275 | -96.97638 | 3739 ft | 173 kts | 319° |
| 2026-05-06 19:03 | 32.68184 | -96.98570 | 3637 ft | 174 kts | 320° |
| 2026-05-06 19:03 | 32.69111 | -96.99509 | 3554 ft | 176 kts | 321° |
| 2026-05-06 19:03 | 32.70047 | -97.00457 | 3459 ft | 177 kts | 321° |
| 2026-05-06 19:03 | 32.70988 | -97.01415 | 3381 ft | 178 kts | 322° |
| 2026-05-06 19:04 | 32.71925 | -97.02361 | 3312 ft | 180 kts | 322° |
| 2026-05-06 19:04 | 32.72874 | -97.03329 | 3234 ft | 180 kts | 322° |
| 2026-05-06 19:04 | 32.73825 | -97.04288 | 3189 ft | 176 kts | 323° |
| 2026-05-06 19:04 | 32.74734 | -97.05210 | 3165 ft | 162 kts | 325° |
| 2026-05-06 19:05 | 32.75716 | -97.05579 | 3011 ft | 143 kts | 7° |
| 2026-05-06 19:05 | 32.76683 | -97.05507 | 2935 ft | 136 kts | 3° |
| 2026-05-06 19:05 | 32.77605 | -97.05502 | 2844 ft | 125 kts | 2° |
| 2026-05-06 19:05 | 32.78425 | -97.05525 | 2706 ft | 111 kts | 1° |
| 2026-05-06 19:06 | 32.79156 | -97.05541 | 2366 ft | 107 kts | 3° |
| 2026-05-06 19:06 | 32.79901 | -97.05546 | 2050 ft | 105 kts | 2° |
| 2026-05-06 19:06 | 32.80626 | -97.05537 | 1937 ft | 107 kts | 2° |
| 2026-05-06 19:06 | 32.81415 | -97.05528 | 1952 ft | 120 kts | 2° |
| 2026-05-06 19:07 | 32.82296 | -97.05527 | 1960 ft | 134 kts | 2° |
| 2026-05-06 19:07 | 32.82925 | -97.05489 | 1980 ft | 137 kts | 4° |
| 2026-05-06 19:07 | 32.84213 | -97.05512 | 1867 ft | 136 kts | 359° |
| 2026-05-06 19:07 | 32.85120 | -97.05508 | 1503 ft | 127 kts | 360° |
| 2026-05-06 19:08 | 32.85972 | -97.05497 | 1167 ft | 118 kts | 1° |
| 2026-05-06 19:08 | 32.86800 | -97.05508 | 848 ft | 123 kts | 360° |
| 2026-05-06 19:08 | 32.87655 | -97.05500 | 756 ft | 124 kts | 0° |
| 2026-05-06 19:08 | 32.88495 | -97.05487 | 653 ft | 117 kts | 1° |
| 2026-05-06 19:09 | 32.89213 | -97.05476 | 619 ft | 85 kts | 0° |
| 2026-05-06 19:09 | 32.89699 | -97.05473 | 617 ft | 59 kts | 0° |
| 2026-05-06 19:09 | 32.89980 | -97.05377 | 617 ft | 40 kts | 26° |
| 2026-05-06 19:09 | 32.90127 | -97.05211 | 617 ft | 22 kts | 92° |
| 2026-05-06 19:10 | 32.90119 | -97.05020 | 621 ft | 24 kts | 93° |
| 2026-05-06 19:10 | 32.90117 | -97.04811 | 614 ft | 26 kts | 89° |
| 2026-05-06 19:10 | 32.90076 | -97.04753 | 627 ft | 4 kts | 177° |
| 2026-05-06 19:10 | 32.90027 | -97.04758 | 617 ft | 11 kts | 185° |
| 2026-05-06 19:11 | 32.89920 | -97.04765 | 618 ft | 19 kts | 182° |
| 2026-05-06 19:11 | 32.89790 | -97.04733 | 622 ft | 19 kts | 158° |
| 2026-05-06 19:11 | 32.89719 | -97.04672 | 614 ft | 0 kts | 120° |
| 2026-05-06 19:12 | 32.89714 | -97.04636 | 620 ft | 7 kts | 91° |
| 2026-05-06 19:12 | 32.89713 | -97.04578 | 614 ft | 4 kts | 91° |
| 2026-05-06 19:12 | 32.89713 | -97.04575 | 614 ft | 1 kts | 91° |
| 2026-05-06 19:12 | 32.89713 | -97.04573 | 614 ft | 0 kts | 91° |